createdAt,value
2022-12-01T00:00:47.107Z,4.80
2022-12-01T00:03:17.004Z,4.90
2022-12-01T00:05:46.739Z,4.70
2022-12-01T00:08:16.476Z,4.60
2022-12-01T00:10:48.441Z,4.60
2022-12-01T00:13:18.287Z,4.70
2022-12-01T00:15:48.043Z,4.60
2022-12-01T00:18:17.742Z,4.50
2022-12-01T00:20:50.881Z,4.50
2022-12-01T00:23:20.683Z,4.50
2022-12-01T00:25:51.802Z,4.50
2022-12-01T00:28:21.548Z,4.60
2022-12-01T00:30:51.358Z,4.70
2022-12-01T00:33:21.139Z,4.60
2022-12-01T00:35:51.085Z,4.60
2022-12-01T00:38:20.872Z,4.60
2022-12-01T00:40:51.953Z,4.50
2022-12-01T00:43:21.534Z,4.60
2022-12-01T00:45:51.329Z,4.60
2022-12-01T00:48:21.338Z,4.50
2022-12-01T00:50:52.388Z,4.50
2022-12-01T00:53:22.690Z,4.40
2022-12-01T00:55:54.806Z,4.50
2022-12-01T00:58:24.843Z,4.40
2022-12-01T01:01:00.331Z,4.40
2022-12-01T01:03:30.736Z,4.50
2022-12-01T01:06:07.598Z,4.40
2022-12-01T01:08:37.203Z,4.40
2022-12-01T01:11:10.101Z,4.30
2022-12-01T01:13:40.299Z,4.30
2022-12-01T01:16:14.735Z,4.30
2022-12-01T01:18:44.431Z,4.20
2022-12-01T01:21:16.438Z,4.20
2022-12-01T01:23:46.400Z,4.20
2022-12-01T01:26:21.826Z,4.10
2022-12-01T01:28:55.140Z,4.20
2022-12-01T01:31:26.328Z,4.10
2022-12-01T01:33:56.537Z,4.20
2022-12-01T01:36:27.199Z,4.20
2022-12-01T01:38:56.825Z,4.10
2022-12-01T01:41:28.859Z,4.20
2022-12-01T01:44:00.597Z,4.20
2022-12-01T01:46:32.418Z,4.10
2022-12-01T01:49:04.623Z,4.10
2022-12-01T01:51:41.533Z,4.10
2022-12-01T01:54:16.016Z,4.10
2022-12-01T01:56:48.889Z,4.00
2022-12-01T01:59:21.870Z,4.10
2022-12-01T02:02:01.213Z,4.00
2022-12-01T02:04:31.845Z,4.10
2022-12-01T02:07:01.738Z,4.00
2022-12-01T02:09:34.103Z,4.00
2022-12-01T02:12:18.981Z,4.00
2022-12-01T02:15:10.001Z,4.00
2022-12-01T02:17:45.868Z,4.00
2022-12-01T02:20:58.275Z,4.00
2022-12-01T02:23:59.242Z,3.90
2022-12-01T02:26:43.916Z,3.90
2022-12-01T02:29:35.221Z,3.90
2022-12-01T02:32:14.394Z,3.90
2022-12-01T02:34:51.415Z,3.90
2022-12-01T02:37:28.422Z,3.90
2022-12-01T02:40:02.924Z,3.90
2022-12-01T02:42:53.910Z,3.90
2022-12-01T02:45:30.143Z,4.00
2022-12-01T02:48:06.322Z,4.00
2022-12-01T02:50:38.917Z,3.90
2022-12-01T02:53:12.528Z,3.90
2022-12-01T02:55:51.088Z,3.90
2022-12-01T02:58:20.760Z,3.90
2022-12-01T03:01:04.642Z,4.00
2022-12-01T03:03:45.996Z,4.00
2022-12-01T03:06:22.196Z,4.00
2022-12-01T03:09:01.811Z,4.00
2022-12-01T03:11:42.041Z,3.90
2022-12-01T03:14:19.080Z,4.00
2022-12-01T03:16:54.179Z,3.90
2022-12-01T03:19:32.902Z,4.00
2022-12-01T03:22:06.538Z,4.10
2022-12-01T03:24:39.075Z,4.00
2022-12-01T03:27:10.934Z,4.00
2022-12-01T03:29:43.162Z,4.00
2022-12-01T03:32:17.163Z,4.10
2022-12-01T03:34:52.661Z,4.10
2022-12-01T03:37:26.972Z,4.10
2022-12-01T03:40:00.594Z,4.10
2022-12-01T03:42:36.782Z,4.10
2022-12-01T03:45:08.535Z,4.00
2022-12-01T03:47:40.433Z,4.00
2022-12-01T03:50:14.427Z,4.00
2022-12-01T03:52:49.816Z,4.00
2022-12-01T03:55:24.510Z,3.90
2022-12-01T03:57:58.364Z,3.90
2022-12-01T04:00:28.276Z,4.00
2022-12-01T04:02:59.918Z,3.90
2022-12-01T04:05:32.305Z,3.90
2022-12-01T04:08:02.041Z,3.90
2022-12-01T04:10:33.097Z,3.90
2022-12-01T04:13:03.622Z,3.90
2022-12-01T04:15:33.106Z,4.00
2022-12-01T04:18:02.878Z,3.90
2022-12-01T04:20:34.168Z,3.90
2022-12-01T04:23:04.054Z,3.90
2022-12-01T04:25:34.003Z,3.90
2022-12-01T04:28:03.839Z,3.80
2022-12-01T04:30:33.529Z,3.70
2022-12-01T04:33:03.346Z,3.70
2022-12-01T04:35:34.403Z,3.70
2022-12-01T04:38:04.201Z,3.70
2022-12-01T04:40:33.917Z,3.60
2022-12-01T04:43:03.657Z,3.60
2022-12-01T04:45:33.550Z,3.60
2022-12-01T04:48:03.268Z,3.60
2022-12-01T04:50:34.851Z,3.60
2022-12-01T04:53:04.754Z,3.60
2022-12-01T04:55:38.552Z,3.60
2022-12-01T04:58:08.370Z,3.50
2022-12-01T05:00:38.163Z,3.50
2022-12-01T05:03:13.532Z,3.50
2022-12-01T05:05:45.800Z,3.50
2022-12-01T05:08:15.520Z,3.50
2022-12-01T05:10:45.274Z,3.50
2022-12-01T05:13:14.952Z,3.50
2022-12-01T05:15:44.395Z,3.40
2022-12-01T05:18:14.238Z,3.40
2022-12-01T05:20:58.300Z,3.40
2022-12-01T05:23:31.225Z,3.40
2022-12-01T05:26:01.414Z,3.40
2022-12-01T05:28:31.759Z,3.40
2022-12-01T05:31:01.953Z,3.30
2022-12-01T05:33:32.203Z,3.30
2022-12-01T05:36:02.006Z,3.30
2022-12-01T05:38:32.875Z,3.30
2022-12-01T05:41:02.741Z,3.30
2022-12-01T05:43:32.495Z,3.30
2022-12-01T05:46:02.220Z,3.30
2022-12-01T05:48:31.814Z,3.30
2022-12-01T05:51:01.688Z,3.30
2022-12-01T05:53:31.124Z,3.30
2022-12-01T05:56:00.625Z,3.30
2022-12-01T05:58:30.516Z,3.30
2022-12-01T06:01:00.325Z,3.30
2022-12-01T06:03:30.403Z,3.40
2022-12-01T06:06:00.745Z,3.30
2022-12-01T06:08:30.553Z,3.20
2022-12-01T06:11:01.707Z,3.30
2022-12-01T06:13:31.388Z,3.30
2022-12-01T06:16:02.533Z,3.20
2022-12-01T06:18:34.636Z,3.20
2022-12-01T06:21:05.596Z,3.20
2022-12-01T06:23:35.801Z,3.20
2022-12-01T06:26:06.715Z,3.10
2022-12-01T06:28:36.418Z,3.10
2022-12-01T06:31:06.232Z,3.20
2022-12-01T06:33:35.994Z,3.20
2022-12-01T06:36:07.725Z,3.10
2022-12-01T06:38:37.989Z,3.10
2022-12-01T06:41:09.179Z,3.10
2022-12-01T06:43:39.415Z,3.10
2022-12-01T06:46:09.348Z,3.10
2022-12-01T06:48:39.289Z,3.10
2022-12-01T06:51:10.943Z,3.00
2022-12-01T06:53:40.776Z,3.10
2022-12-01T06:56:12.173Z,3.10
2022-12-01T06:58:42.346Z,3.20
2022-12-01T07:01:13.182Z,3.20
2022-12-01T07:03:44.071Z,3.20
2022-12-01T07:06:13.878Z,3.20
2022-12-01T07:08:43.909Z,3.30
2022-12-01T07:11:16.370Z,3.20
2022-12-01T07:13:46.530Z,3.30
2022-12-01T07:16:16.427Z,3.40
2022-12-01T07:18:45.968Z,3.30
2022-12-01T07:21:16.870Z,3.30
2022-12-01T07:23:46.668Z,3.40
2022-12-01T07:26:19.084Z,3.50
2022-12-01T07:28:49.120Z,3.40
2022-12-01T07:31:20.528Z,3.40
2022-12-01T07:33:50.347Z,3.60
2022-12-01T07:36:20.093Z,3.50
2022-12-01T07:38:49.899Z,3.70
2022-12-01T07:41:21.948Z,3.60
2022-12-01T07:43:51.852Z,3.60
2022-12-01T07:46:25.151Z,3.60
2022-12-01T07:48:55.339Z,3.60
2022-12-01T07:51:26.442Z,3.70
2022-12-01T07:53:57.125Z,3.70
2022-12-01T07:56:28.239Z,3.70
2022-12-01T07:58:58.082Z,3.70
2022-12-01T08:01:28.395Z,3.70
2022-12-01T08:03:59.874Z,3.70
2022-12-01T08:06:30.071Z,3.70
2022-12-01T08:08:59.908Z,3.70
2022-12-01T08:11:31.599Z,3.70
2022-12-01T08:14:01.475Z,3.70
2022-12-01T08:16:31.948Z,3.70
2022-12-01T08:19:02.378Z,3.80
2022-12-01T08:21:32.247Z,3.80
2022-12-01T08:24:02.043Z,3.80
2022-12-01T08:26:33.729Z,3.80
2022-12-01T08:29:03.554Z,3.80
2022-12-01T08:31:35.673Z,3.80
2022-12-01T08:34:06.616Z,3.90
2022-12-01T08:36:36.650Z,3.90
2022-12-01T08:39:08.461Z,3.80
2022-12-01T08:41:39.417Z,3.80
2022-12-01T08:44:10.361Z,3.70
2022-12-01T08:46:40.462Z,3.70
2022-12-01T08:49:10.493Z,3.70
2022-12-01T08:51:40.387Z,3.80
2022-12-01T08:54:11.494Z,3.80
2022-12-01T08:56:44.402Z,3.90
2022-12-01T08:59:14.315Z,4.00
2022-12-01T09:01:53.167Z,4.10
2022-12-01T09:04:24.810Z,4.20
2022-12-01T09:06:56.835Z,4.10
2022-12-01T09:09:28.335Z,4.10
2022-12-01T09:11:59.488Z,4.10
2022-12-01T09:14:29.213Z,4.10
2022-12-01T09:16:59.050Z,4.10
2022-12-01T09:19:29.524Z,4.10
2022-12-01T09:21:59.514Z,4.10
2022-12-01T09:24:29.626Z,4.20
2022-12-01T09:27:03.368Z,4.30
2022-12-01T09:29:33.853Z,4.20
2022-12-01T09:32:03.829Z,4.30
2022-12-01T09:34:33.628Z,4.40
2022-12-01T09:37:03.509Z,4.60
2022-12-01T09:39:34.997Z,4.70
2022-12-01T09:42:13.743Z,4.80
2022-12-01T09:44:48.150Z,4.90
2022-12-01T09:47:22.271Z,5.00
2022-12-01T09:50:00.786Z,5.00
2022-12-01T09:52:34.479Z,5.00
2022-12-01T09:55:04.356Z,4.80
2022-12-01T09:57:39.784Z,4.90
2022-12-01T10:00:13.627Z,4.80
2022-12-01T10:02:48.789Z,4.90
2022-12-01T10:05:21.124Z,4.70
2022-12-01T10:07:55.064Z,4.80
2022-12-01T10:10:29.348Z,4.80
2022-12-01T10:13:00.483Z,4.80
2022-12-01T10:15:35.906Z,4.90
2022-12-01T10:18:18.235Z,4.70
2022-12-01T10:20:53.532Z,4.80
2022-12-01T10:23:42.754Z,4.90
2022-12-01T10:26:16.084Z,5.00
2022-12-01T10:29:10.957Z,5.00
2022-12-01T10:31:47.385Z,5.10
2022-12-01T10:34:22.067Z,5.00
2022-12-01T10:36:52.268Z,5.00
2022-12-01T10:39:25.811Z,5.00
2022-12-01T10:41:57.047Z,5.10
2022-12-01T10:44:29.367Z,5.20
2022-12-01T10:46:59.574Z,5.10
2022-12-01T10:49:39.251Z,4.90
2022-12-01T10:52:28.435Z,4.90
2022-12-01T10:54:58.005Z,5.00
2022-12-01T10:57:30.986Z,5.10
2022-12-01T11:00:06.741Z,5.30
2022-12-01T11:02:36.245Z,5.30
2022-12-01T11:05:08.772Z,5.40
2022-12-01T11:07:46.855Z,5.50
2022-12-01T11:10:21.420Z,5.40
2022-12-01T11:12:56.931Z,5.40
2022-12-01T11:15:30.885Z,5.40
2022-12-01T11:18:02.794Z,5.40
2022-12-01T11:20:33.988Z,5.50
2022-12-01T11:23:26.975Z,5.60
2022-12-01T11:26:04.709Z,5.60
2022-12-01T11:28:35.706Z,5.80
2022-12-01T11:31:09.618Z,5.80
2022-12-01T11:33:45.184Z,5.80
2022-12-01T11:36:25.849Z,5.90
2022-12-01T11:38:58.779Z,6.00
2022-12-01T11:41:42.625Z,6.20
2022-12-01T11:44:50.322Z,6.10
2022-12-01T11:47:23.641Z,6.10
2022-12-01T11:49:57.366Z,6.10
2022-12-01T11:52:28.475Z,6.10
2022-12-01T11:54:58.459Z,6.10
2022-12-01T11:57:34.509Z,6.00
2022-12-01T12:00:06.827Z,6.00
2022-12-01T12:02:50.677Z,6.00
2022-12-01T12:05:51.455Z,6.00
2022-12-01T12:08:33.006Z,6.00
2022-12-01T12:11:10.503Z,6.10
2022-12-01T12:13:57.858Z,6.20
2022-12-01T12:16:34.499Z,6.40
2022-12-01T12:19:18.135Z,6.50
2022-12-01T12:22:02.354Z,6.40
2022-12-01T12:24:42.660Z,6.60
2022-12-01T12:27:21.181Z,6.70
2022-12-01T12:30:01.411Z,6.80
2022-12-01T12:32:59.008Z,6.90
2022-12-01T12:35:40.338Z,6.80
2022-12-01T12:38:29.807Z,6.60
2022-12-01T12:41:03.917Z,6.30
2022-12-01T12:43:40.536Z,6.30
2022-12-01T12:46:12.461Z,6.20
2022-12-01T12:51:54.013Z,6.10
2022-12-01T12:54:30.890Z,6.00
2022-12-01T12:57:07.044Z,6.00
2022-12-01T12:59:43.254Z,6.00
2022-12-01T13:02:17.805Z,6.00
2022-12-01T13:04:54.573Z,6.10
2022-12-01T13:07:33.975Z,5.90
2022-12-01T13:10:09.114Z,5.90
2022-12-01T13:12:44.311Z,5.80
2022-12-01T13:15:19.988Z,5.70
2022-12-01T13:17:52.211Z,5.60
2022-12-01T13:20:27.479Z,5.50
2022-12-01T13:23:00.470Z,5.50
2022-12-01T13:25:33.769Z,5.50
2022-12-01T13:28:05.750Z,5.60
2022-12-01T13:30:35.677Z,5.50
2022-12-01T13:33:07.445Z,5.60
2022-12-01T13:35:39.779Z,5.50
2022-12-01T13:38:29.572Z,5.60
2022-12-01T13:41:22.388Z,5.40
2022-12-01T13:44:05.206Z,5.50
2022-12-01T13:46:51.582Z,5.50
2022-12-01T13:49:44.532Z,5.50
2022-12-01T13:52:33.351Z,5.50
2022-12-01T13:55:19.488Z,5.40
2022-12-01T13:58:11.146Z,5.40
2022-12-01T14:00:43.027Z,5.40
2022-12-01T14:03:47.588Z,5.40
2022-12-01T14:06:28.054Z,5.60
2022-12-01T14:09:02.443Z,5.50
2022-12-01T14:11:33.559Z,5.70
2022-12-01T14:14:11.524Z,5.70
2022-12-01T14:16:58.389Z,5.50
2022-12-01T14:19:35.402Z,5.40
2022-12-01T14:22:06.587Z,5.40
2022-12-01T14:24:38.885Z,5.60
2022-12-01T14:27:11.723Z,5.50
2022-12-01T14:29:43.134Z,5.50
2022-12-01T14:32:25.208Z,5.60
2022-12-01T14:35:02.195Z,5.60
2022-12-01T14:37:47.083Z,5.50
2022-12-01T14:40:22.944Z,5.60
2022-12-01T14:43:14.147Z,5.60
2022-12-01T14:45:48.610Z,5.60
2022-12-01T14:48:24.943Z,5.50
2022-12-01T14:51:08.326Z,5.50
2022-12-01T14:53:41.830Z,5.50
2022-12-01T14:56:15.467Z,5.50
2022-12-01T14:58:55.960Z,5.40
2022-12-01T15:01:30.685Z,5.40
2022-12-01T15:04:04.025Z,5.30
2022-12-01T15:06:36.000Z,5.20
2022-12-01T15:12:06.857Z,5.10
2022-12-01T15:14:39.153Z,5.10
2022-12-01T15:17:28.325Z,5.20
2022-12-01T15:19:59.654Z,5.20
2022-12-01T15:22:33.007Z,5.20
2022-12-01T15:25:12.903Z,5.10
2022-12-01T15:27:44.055Z,5.10
2022-12-01T15:30:15.505Z,5.00
2022-12-01T15:32:47.110Z,5.00
2022-12-01T15:35:22.678Z,5.00
2022-12-01T15:37:53.450Z,4.90
2022-12-01T15:41:06.231Z,5.00
2022-12-01T15:43:19.365Z,5.00
2022-12-01T15:45:55.456Z,5.00
2022-12-01T15:48:29.875Z,4.90
2022-12-01T15:51:05.762Z,4.90
2022-12-01T15:53:38.916Z,4.90
2022-12-01T15:56:10.591Z,4.90
2022-12-01T15:58:45.983Z,4.90
2022-12-01T16:01:18.901Z,4.80
2022-12-01T16:03:54.536Z,4.80
2022-12-01T16:06:30.329Z,4.80
2022-12-01T16:09:01.998Z,4.80
2022-12-01T16:11:31.859Z,4.80
2022-12-01T16:14:02.563Z,4.80
2022-12-01T16:16:42.557Z,4.80
2022-12-01T16:19:26.671Z,4.80
2022-12-01T16:22:00.293Z,4.80
2022-12-01T16:24:32.029Z,4.80
2022-12-01T16:27:05.225Z,4.80
2022-12-01T16:29:46.482Z,4.80
2022-12-01T16:32:22.074Z,4.70
2022-12-01T16:34:51.508Z,4.80
2022-12-01T16:37:22.725Z,4.80
2022-12-01T16:39:52.942Z,4.80
2022-12-01T16:42:24.041Z,4.80
2022-12-01T16:44:54.722Z,4.80
2022-12-01T16:47:26.182Z,4.70
2022-12-01T16:49:55.941Z,4.70
2022-12-01T16:55:37.271Z,4.60
2022-12-01T16:58:07.081Z,4.60
2022-12-01T17:00:37.272Z,4.60
2022-12-01T17:03:07.706Z,4.60
2022-12-01T17:05:37.928Z,4.60
2022-12-01T17:08:09.801Z,4.60
2022-12-01T17:10:42.546Z,4.60
2022-12-01T17:13:12.768Z,4.60
2022-12-01T17:15:44.209Z,4.60
2022-12-01T17:18:14.463Z,4.70
2022-12-01T17:20:44.411Z,4.70
2022-12-01T17:23:15.275Z,4.80
2022-12-01T17:25:46.598Z,4.80
2022-12-01T17:28:16.376Z,4.70
2022-12-01T17:30:46.161Z,4.60
2022-12-01T17:33:16.095Z,4.60
2022-12-01T17:35:45.839Z,4.60
2022-12-01T17:38:16.784Z,4.60
2022-12-01T17:40:46.934Z,4.40
2022-12-01T17:43:16.371Z,4.40
2022-12-01T17:45:46.274Z,4.50
2022-12-01T17:48:16.164Z,4.30
2022-12-01T17:50:45.900Z,4.30
2022-12-01T17:53:17.041Z,4.20
2022-12-01T17:55:49.396Z,4.30
2022-12-01T17:58:21.423Z,4.30
2022-12-01T18:00:52.473Z,4.30
2022-12-01T18:03:23.031Z,4.40
2022-12-01T18:05:56.851Z,4.40
2022-12-01T18:08:29.065Z,4.30
2022-12-01T18:11:01.180Z,4.40
2022-12-01T18:13:31.213Z,4.40
2022-12-01T18:16:00.942Z,4.30
2022-12-01T18:18:30.663Z,4.30
2022-12-01T18:21:00.558Z,4.40
2022-12-01T18:23:31.620Z,4.20
2022-12-01T18:26:08.650Z,4.30
2022-12-01T18:28:42.071Z,4.30
2022-12-01T18:31:15.487Z,4.30
2022-12-01T18:33:46.359Z,4.20
2022-12-01T18:36:18.725Z,4.30
2022-12-01T18:38:50.210Z,4.30
2022-12-01T18:41:20.343Z,4.20
2022-12-01T18:43:53.297Z,4.20
2022-12-01T18:46:23.293Z,4.10
2022-12-01T18:48:59.395Z,4.10
2022-12-01T18:51:29.680Z,4.20
2022-12-01T18:54:02.563Z,4.20
2022-12-01T18:56:32.531Z,4.10
2022-12-01T18:59:03.181Z,4.10
2022-12-01T19:01:36.033Z,4.10
2022-12-01T19:04:06.678Z,4.10
2022-12-01T19:06:38.079Z,4.10
2022-12-01T19:09:10.615Z,4.00
2022-12-01T19:11:41.452Z,3.90
2022-12-01T19:14:12.917Z,3.80
2022-12-01T19:16:42.912Z,3.70
2022-12-01T19:19:12.668Z,3.70
2022-12-01T19:21:42.773Z,3.70
2022-12-01T19:24:14.113Z,3.70
2022-12-01T19:26:43.869Z,3.60
2022-12-01T19:29:13.613Z,3.60
2022-12-01T19:31:43.485Z,3.60
2022-12-01T19:34:13.277Z,3.60
2022-12-01T19:36:43.187Z,3.70
2022-12-01T19:39:14.645Z,3.80
2022-12-01T19:41:44.589Z,3.70
2022-12-01T19:44:14.618Z,3.70
2022-12-01T19:46:44.360Z,3.90
2022-12-01T19:49:14.250Z,3.90
2022-12-01T19:51:44.116Z,3.90
2022-12-01T19:54:17.504Z,4.00
2022-12-01T19:56:48.852Z,4.00
2022-12-01T19:59:18.357Z,3.90
2022-12-01T20:01:48.243Z,3.90
2022-12-01T20:04:18.134Z,3.80
2022-12-01T20:06:48.498Z,3.80
2022-12-01T20:09:17.656Z,3.70
2022-12-01T20:11:47.406Z,3.70
2022-12-01T20:14:17.144Z,3.70
2022-12-01T20:16:47.100Z,3.70
2022-12-01T20:19:16.685Z,3.70
2022-12-01T20:21:46.560Z,3.80
2022-12-01T20:24:18.612Z,3.70
2022-12-01T20:26:50.966Z,3.70
2022-12-01T20:29:23.037Z,3.60
2022-12-01T20:31:54.263Z,3.50
2022-12-01T20:34:27.121Z,3.60
2022-12-01T20:36:57.776Z,3.60
2022-12-01T20:39:31.363Z,3.50
2022-12-01T20:42:01.360Z,3.40
2022-12-01T20:44:31.488Z,3.40
2022-12-01T20:47:01.629Z,3.50
2022-12-01T20:49:31.339Z,3.50
2022-12-01T20:52:00.906Z,3.60
2022-12-01T20:54:32.403Z,3.50
2022-12-01T20:57:02.534Z,3.50
2022-12-01T20:59:32.740Z,3.50
2022-12-01T21:02:02.631Z,3.50
2022-12-01T21:04:32.479Z,3.50
2022-12-01T21:07:02.822Z,3.50
2022-12-01T21:09:34.270Z,3.50
2022-12-01T21:12:29.330Z,3.40
2022-12-01T21:15:03.157Z,3.40
2022-12-01T21:17:38.053Z,3.40
2022-12-01T21:20:18.032Z,3.30
2022-12-01T21:22:49.268Z,3.30
2022-12-01T21:25:23.787Z,3.30
2022-12-01T21:27:56.136Z,3.20
2022-12-01T21:30:26.724Z,3.20
2022-12-01T21:33:01.447Z,3.10
2022-12-01T21:35:31.070Z,3.20
2022-12-01T21:38:05.072Z,3.20
2022-12-01T21:40:36.159Z,3.20
2022-12-01T21:43:17.149Z,3.20
2022-12-01T21:45:47.270Z,3.20
2022-12-01T21:48:19.196Z,3.20
2022-12-01T21:50:53.964Z,3.20
2022-12-01T21:53:25.454Z,3.10
2022-12-01T21:55:59.138Z,3.10
2022-12-01T21:58:34.358Z,3.10
2022-12-01T22:01:13.915Z,3.20
2022-12-01T22:03:48.316Z,3.10
2022-12-01T22:06:30.603Z,3.00
2022-12-01T22:09:04.425Z,3.00
2022-12-01T22:11:35.241Z,3.00
2022-12-01T22:14:16.433Z,3.10
2022-12-01T22:16:49.640Z,3.00
2022-12-01T22:19:27.404Z,3.10
2022-12-01T22:22:01.632Z,3.00
2022-12-01T22:24:35.328Z,3.00
2022-12-01T22:27:32.485Z,2.90
2022-12-01T22:30:02.857Z,2.90
2022-12-01T22:32:45.384Z,3.00
2022-12-01T22:35:24.420Z,3.10
2022-12-01T22:37:56.502Z,3.10
2022-12-01T22:40:35.891Z,3.10
2022-12-01T22:43:25.424Z,3.00
2022-12-01T22:46:12.726Z,3.00
2022-12-01T22:48:44.631Z,3.00
2022-12-01T22:51:40.236Z,2.80
2022-12-01T22:54:27.892Z,2.90
2022-12-01T22:57:03.191Z,2.80
2022-12-01T22:59:35.709Z,2.80
2022-12-01T23:02:19.308Z,2.80
2022-12-01T23:04:52.894Z,2.70
2022-12-01T23:07:36.564Z,2.80
2022-12-01T23:10:09.139Z,2.80
2022-12-01T23:12:39.658Z,2.70
2022-12-01T23:15:24.016Z,2.70
2022-12-01T23:17:54.441Z,2.70
2022-12-01T23:20:32.413Z,2.60
2022-12-01T23:23:04.518Z,2.70
2022-12-01T23:25:34.987Z,2.70
2022-12-01T23:28:09.335Z,2.80
2022-12-01T23:30:43.179Z,3.00
2022-12-01T23:33:18.044Z,3.00
2022-12-01T23:35:48.740Z,3.00
2022-12-01T23:38:20.857Z,3.10
2022-12-01T23:40:52.735Z,3.00
2022-12-01T23:43:24.293Z,3.00
2022-12-01T23:46:02.735Z,3.00
2022-12-01T23:48:38.146Z,3.00
2022-12-01T23:51:11.190Z,3.00
2022-12-01T23:53:42.569Z,3.00
2022-12-01T23:56:16.934Z,3.00
2022-12-01T23:58:47.129Z,3.00
